createdAt,value
2023-02-17T00:03:05.325Z,987.7
2023-02-17T00:22:25.554Z,987.7
2023-02-17T00:41:43.970Z,987.5
2023-02-17T01:01:05.886Z,987.5
2023-02-17T01:20:22.134Z,987.4
2023-02-17T01:39:40.699Z,987.1
2023-02-17T01:59:00.307Z,986.8
2023-02-17T02:18:19.674Z,986.6
2023-02-17T02:37:38.728Z,986.5
2023-02-17T02:56:57.912Z,986.4
2023-02-17T03:16:16.600Z,986.3
2023-02-17T03:35:36.238Z,986.2
2023-02-17T03:54:55.738Z,986.2
2023-02-17T04:14:15.647Z,986.3
2023-02-17T04:33:34.770Z,986.4
2023-02-17T04:52:53.844Z,986.4
2023-02-17T05:12:12.416Z,986.2
2023-02-17T05:31:30.072Z,986.1
2023-02-17T05:50:47.774Z,986.1
2023-02-17T06:10:06.683Z,986.2
2023-02-17T06:29:24.041Z,986.1
2023-02-17T06:48:42.164Z,986.2
2023-02-17T07:08:01.950Z,986.2
2023-02-17T07:27:21.024Z,986.4
2023-02-17T07:46:40.722Z,986.5
2023-02-17T08:05:59.773Z,986.4
2023-02-17T08:25:18.357Z,986.2
2023-02-17T08:44:39.317Z,986.3
2023-02-17T09:03:57.000Z,986.4
2023-02-17T09:23:17.736Z,986.3
2023-02-17T09:42:39.070Z,986.4
2023-02-17T10:01:59.960Z,986.4
2023-02-17T10:21:19.274Z,986.4
2023-02-17T10:40:40.218Z,986.4
2023-02-17T11:00:00.490Z,986.3
2023-02-17T11:19:18.495Z,985.9
2023-02-17T11:38:38.445Z,985.7
2023-02-17T11:57:59.165Z,985.5
2023-02-17T12:17:19.347Z,985.7
2023-02-17T12:36:38.732Z,985.6
2023-02-17T12:55:54.986Z,985.3
2023-02-17T13:15:14.428Z,985.1
2023-02-17T13:34:34.044Z,985
2023-02-17T13:53:52.416Z,985
2023-02-17T14:13:11.053Z,985.2
2023-02-17T14:32:30.197Z,985.5
2023-02-17T14:51:49.177Z,985.4
2023-02-17T15:11:09.239Z,985.6
2023-02-17T15:30:29.080Z,985.8
2023-02-17T15:49:44.761Z,986
2023-02-17T16:09:02.773Z,986.2
2023-02-17T16:28:20.717Z,986.6
2023-02-17T16:47:38.600Z,987
2023-02-17T17:06:57.988Z,987.3
2023-02-17T17:26:16.580Z,987.6
2023-02-17T17:45:33.947Z,987.8
2023-02-17T18:04:52.842Z,988.1
2023-02-17T18:24:08.972Z,988.3
2023-02-17T18:43:27.084Z,988.5
2023-02-17T19:02:45.750Z,988.7
2023-02-17T19:22:04.562Z,988.9
2023-02-17T19:41:23.119Z,989
2023-02-17T20:00:41.756Z,989
2023-02-17T20:20:01.170Z,989.1
2023-02-17T20:39:20.078Z,989.2
2023-02-17T20:58:39.734Z,989.2
2023-02-17T21:17:58.474Z,989.4
2023-02-17T21:37:16.821Z,989.2
2023-02-17T21:56:35.701Z,989.4
2023-02-17T22:15:54.584Z,989.5
2023-02-17T22:35:13.276Z,989.4
2023-02-17T22:54:31.778Z,989.3
2023-02-17T23:13:50.889Z,989.2
2023-02-17T23:33:10.729Z,989.2
2023-02-17T23:52:29.772Z,989.2
